sensor_id;sensor_type;location;lat;lon;timestamp;P1;durP1;ratioP1;P2;durP2;ratioP2
78891;SDS011;68368;51.728;5.248;2023-10-09T00:01:03;27.70;;;16.30;;
78891;SDS011;68368;51.728;5.248;2023-10-09T00:03:08;29.50;;;16.30;;
78891;SDS011;68368;51.728;5.248;2023-10-09T00:05:13;29.30;;;15.70;;
78891;SDS011;68368;51.728;5.248;2023-10-09T00:07:18;31.40;;;16.80;;
78891;SDS011;68368;51.728;5.248;2023-10-09T00:09:26;28.00;;;15.90;;
78891;SDS011;68368;51.728;5.248;2023-10-09T00:11:30;27.50;;;15.20;;
78891;SDS011;68368;51.728;5.248;2023-10-09T00:13:35;29.30;;;16.30;;
78891;SDS011;68368;51.728;5.248;2023-10-09T00:15:40;30.20;;;17.00;;
78891;SDS011;68368;51.728;5.248;2023-10-09T00:17:45;26.70;;;16.50;;
78891;SDS011;68368;51.728;5.248;2023-10-09T00:19:50;27.30;;;16.60;;
78891;SDS011;68368;51.728;5.248;2023-10-09T00:21:55;29.40;;;16.90;;
78891;SDS011;68368;51.728;5.248;2023-10-09T00:24:00;29.40;;;17.00;;
78891;SDS011;68368;51.728;5.248;2023-10-09T00:26:05;29.00;;;16.20;;
78891;SDS011;68368;51.728;5.248;2023-10-09T00:28:09;28.40;;;15.40;;
78891;SDS011;68368;51.728;5.248;2023-10-09T00:30:15;27.40;;;15.80;;
78891;SDS011;68368;51.728;5.248;2023-10-09T00:32:21;27.00;;;15.50;;
78891;SDS011;68368;51.728;5.248;2023-10-09T00:34:25;25.20;;;14.80;;
78891;SDS011;68368;51.728;5.248;2023-10-09T00:36:30;28.30;;;16.10;;
78891;SDS011;68368;51.728;5.248;2023-10-09T00:38:35;25.90;;;15.90;;
78891;SDS011;68368;51.728;5.248;2023-10-09T00:40:40;23.80;;;14.90;;
78891;SDS011;68368;51.728;5.248;2023-10-09T00:42:45;25.90;;;13.80;;
78891;SDS011;68368;51.728;5.248;2023-10-09T00:44:49;26.10;;;14.50;;
78891;SDS011;68368;51.728;5.248;2023-10-09T00:46:54;23.20;;;13.30;;
78891;SDS011;68368;51.728;5.248;2023-10-09T00:48:59;21.50;;;13.20;;
78891;SDS011;68368;51.728;5.248;2023-10-09T00:51:05;22.80;;;13.10;;
78891;SDS011;68368;51.728;5.248;2023-10-09T00:53:10;23.90;;;13.70;;
78891;SDS011;68368;51.728;5.248;2023-10-09T00:55:17;19.00;;;12.20;;
78891;SDS011;68368;51.728;5.248;2023-10-09T00:57:23;20.20;;;12.30;;
78891;SDS011;68368;51.728;5.248;2023-10-09T00:59:28;20.10;;;12.80;;
78891;SDS011;68368;51.728;5.248;2023-10-09T01:01:37;22.00;;;13.10;;
78891;SDS011;68368;51.728;5.248;2023-10-09T01:03:42;21.00;;;12.80;;
78891;SDS011;68368;51.728;5.248;2023-10-09T01:05:49;20.90;;;13.10;;
78891;SDS011;68368;51.728;5.248;2023-10-09T01:07:56;20.20;;;12.10;;
78891;SDS011;68368;51.728;5.248;2023-10-09T01:10:01;16.90;;;11.40;;
78891;SDS011;68368;51.728;5.248;2023-10-09T01:12:07;18.30;;;9.90;;
78891;SDS011;68368;51.728;5.248;2023-10-09T01:14:12;20.60;;;11.10;;
78891;SDS011;68368;51.728;5.248;2023-10-09T01:16:17;20.30;;;11.50;;
78891;SDS011;68368;51.728;5.248;2023-10-09T01:18:23;18.40;;;12.00;;
78891;SDS011;68368;51.728;5.248;2023-10-09T01:20:29;21.90;;;11.60;;
78891;SDS011;68368;51.728;5.248;2023-10-09T01:22:34;18.70;;;11.80;;
78891;SDS011;68368;51.728;5.248;2023-10-09T01:24:38;18.70;;;12.20;;
78891;SDS011;68368;51.728;5.248;2023-10-09T01:26:44;20.10;;;12.00;;
78891;SDS011;68368;51.728;5.248;2023-10-09T01:28:49;19.90;;;11.60;;
78891;SDS011;68368;51.728;5.248;2023-10-09T01:30:54;17.20;;;11.70;;
78891;SDS011;68368;51.728;5.248;2023-10-09T01:33:01;19.30;;;10.80;;
78891;SDS011;68368;51.728;5.248;2023-10-09T01:35:07;17.70;;;10.60;;
78891;SDS011;68368;51.728;5.248;2023-10-09T01:37:13;17.80;;;10.80;;
78891;SDS011;68368;51.728;5.248;2023-10-09T01:39:19;18.50;;;10.50;;
78891;SDS011;68368;51.728;5.248;2023-10-09T01:41:24;17.50;;;11.30;;
78891;SDS011;68368;51.728;5.248;2023-10-09T01:43:28;19.00;;;11.70;;
78891;SDS011;68368;51.728;5.248;2023-10-09T01:45:33;18.70;;;11.70;;
78891;SDS011;68368;51.728;5.248;2023-10-09T01:47:38;17.10;;;10.80;;
78891;SDS011;68368;51.728;5.248;2023-10-09T01:49:43;16.40;;;10.10;;
78891;SDS011;68368;51.728;5.248;2023-10-09T01:51:47;17.50;;;10.70;;
78891;SDS011;68368;51.728;5.248;2023-10-09T01:53:52;15.80;;;9.60;;
78891;SDS011;68368;51.728;5.248;2023-10-09T01:55:57;15.20;;;9.80;;
78891;SDS011;68368;51.728;5.248;2023-10-09T01:58:10;16.70;;;10.20;;
78891;SDS011;68368;51.728;5.248;2023-10-09T02:00:16;14.30;;;10.50;;
78891;SDS011;68368;51.728;5.248;2023-10-09T02:02:21;15.20;;;10.10;;
78891;SDS011;68368;51.728;5.248;2023-10-09T02:04:26;16.20;;;10.70;;
78891;SDS011;68368;51.728;5.248;2023-10-09T02:06:31;20.60;;;11.40;;
78891;SDS011;68368;51.728;5.248;2023-10-09T02:08:35;15.50;;;10.30;;
78891;SDS011;68368;51.728;5.248;2023-10-09T02:10:40;17.40;;;10.70;;
78891;SDS011;68368;51.728;5.248;2023-10-09T02:12:45;16.80;;;10.70;;
78891;SDS011;68368;51.728;5.248;2023-10-09T02:14:50;15.00;;;10.20;;
78891;SDS011;68368;51.728;5.248;2023-10-09T02:16:55;19.10;;;10.70;;
78891;SDS011;68368;51.728;5.248;2023-10-09T02:19:00;17.60;;;9.90;;
78891;SDS011;68368;51.728;5.248;2023-10-09T02:21:08;14.80;;;9.60;;
78891;SDS011;68368;51.728;5.248;2023-10-09T02:23:13;16.40;;;10.20;;
78891;SDS011;68368;51.728;5.248;2023-10-09T02:25:18;17.80;;;10.30;;
78891;SDS011;68368;51.728;5.248;2023-10-09T02:27:23;16.80;;;10.80;;
78891;SDS011;68368;51.728;5.248;2023-10-09T02:29:28;16.10;;;11.20;;
78891;SDS011;68368;51.728;5.248;2023-10-09T02:31:33;19.70;;;10.80;;
78891;SDS011;68368;51.728;5.248;2023-10-09T02:33:38;17.40;;;11.40;;
78891;SDS011;68368;51.728;5.248;2023-10-09T02:35:42;18.30;;;10.90;;
78891;SDS011;68368;51.728;5.248;2023-10-09T02:37:47;22.40;;;11.10;;
78891;SDS011;68368;51.728;5.248;2023-10-09T02:39:52;18.70;;;10.20;;
78891;SDS011;68368;51.728;5.248;2023-10-09T02:41:57;16.80;;;9.60;;
78891;SDS011;68368;51.728;5.248;2023-10-09T02:44:02;15.90;;;10.40;;
78891;SDS011;68368;51.728;5.248;2023-10-09T02:46:07;13.70;;;10.00;;
78891;SDS011;68368;51.728;5.248;2023-10-09T02:48:13;16.40;;;10.20;;
78891;SDS011;68368;51.728;5.248;2023-10-09T02:50:18;16.00;;;9.70;;
78891;SDS011;68368;51.728;5.248;2023-10-09T02:52:23;14.10;;;8.70;;
78891;SDS011;68368;51.728;5.248;2023-10-09T02:54:27;15.40;;;9.90;;
78891;SDS011;68368;51.728;5.248;2023-10-09T02:56:32;15.80;;;9.40;;
78891;SDS011;68368;51.728;5.248;2023-10-09T02:58:37;17.20;;;10.30;;
78891;SDS011;68368;51.728;5.248;2023-10-09T03:00:42;18.20;;;10.50;;
78891;SDS011;68368;51.728;5.248;2023-10-09T03:02:47;16.90;;;10.60;;
78891;SDS011;68368;51.728;5.248;2023-10-09T03:04:52;16.70;;;9.90;;
78891;SDS011;68368;51.728;5.248;2023-10-09T03:06:57;17.00;;;9.40;;
78891;SDS011;68368;51.728;5.248;2023-10-09T03:09:02;15.80;;;9.70;;
78891;SDS011;68368;51.728;5.248;2023-10-09T03:11:07;17.20;;;9.80;;
78891;SDS011;68368;51.728;5.248;2023-10-09T03:13:11;16.40;;;9.70;;
78891;SDS011;68368;51.728;5.248;2023-10-09T03:15:16;17.20;;;9.80;;
78891;SDS011;68368;51.728;5.248;2023-10-09T03:17:21;17.30;;;10.70;;
78891;SDS011;68368;51.728;5.248;2023-10-09T03:19:26;15.90;;;9.40;;
78891;SDS011;68368;51.728;5.248;2023-10-09T03:21:33;19.60;;;10.40;;
78891;SDS011;68368;51.728;5.248;2023-10-09T03:23:38;16.40;;;9.50;;
78891;SDS011;68368;51.728;5.248;2023-10-09T03:25:43;13.40;;;9.70;;
78891;SDS011;68368;51.728;5.248;2023-10-09T03:27:47;18.10;;;10.10;;
78891;SDS011;68368;51.728;5.248;2023-10-09T03:29:52;17.70;;;9.60;;
78891;SDS011;68368;51.728;5.248;2023-10-09T03:31:57;16.60;;;9.80;;
78891;SDS011;68368;51.728;5.248;2023-10-09T03:34:02;15.60;;;10.20;;
78891;SDS011;68368;51.728;5.248;2023-10-09T03:36:08;17.40;;;10.90;;
78891;SDS011;68368;51.728;5.248;2023-10-09T03:38:13;18.40;;;10.20;;
78891;SDS011;68368;51.728;5.248;2023-10-09T03:40:18;15.80;;;10.30;;
78891;SDS011;68368;51.728;5.248;2023-10-09T03:42:22;16.00;;;9.70;;
78891;SDS011;68368;51.728;5.248;2023-10-09T03:44:27;17.10;;;9.80;;
78891;SDS011;68368;51.728;5.248;2023-10-09T03:46:32;16.30;;;10.10;;
78891;SDS011;68368;51.728;5.248;2023-10-09T03:48:36;17.60;;;11.10;;
78891;SDS011;68368;51.728;5.248;2023-10-09T03:50:41;17.20;;;10.30;;
78891;SDS011;68368;51.728;5.248;2023-10-09T03:52:46;17.70;;;11.30;;
78891;SDS011;68368;51.728;5.248;2023-10-09T03:54:51;18.90;;;10.60;;
78891;SDS011;68368;51.728;5.248;2023-10-09T03:56:55;14.80;;;9.70;;
78891;SDS011;68368;51.728;5.248;2023-10-09T03:59:00;15.20;;;10.40;;
78891;SDS011;68368;51.728;5.248;2023-10-09T04:01:10;18.20;;;10.50;;
78891;SDS011;68368;51.728;5.248;2023-10-09T04:03:16;18.10;;;10.80;;
78891;SDS011;68368;51.728;5.248;2023-10-09T04:05:21;20.00;;;11.60;;
78891;SDS011;68368;51.728;5.248;2023-10-09T04:07:25;17.00;;;10.70;;
78891;SDS011;68368;51.728;5.248;2023-10-09T04:09:30;20.30;;;10.50;;
78891;SDS011;68368;51.728;5.248;2023-10-09T04:11:35;21.50;;;10.80;;
78891;SDS011;68368;51.728;5.248;2023-10-09T04:13:40;14.90;;;10.00;;
78891;SDS011;68368;51.728;5.248;2023-10-09T04:15:45;18.60;;;11.00;;
78891;SDS011;68368;51.728;5.248;2023-10-09T04:17:49;17.50;;;10.60;;
78891;SDS011;68368;51.728;5.248;2023-10-09T04:19:54;19.70;;;11.60;;
78891;SDS011;68368;51.728;5.248;2023-10-09T04:21:59;18.60;;;10.40;;
78891;SDS011;68368;51.728;5.248;2023-10-09T04:24:06;19.10;;;11.00;;
78891;SDS011;68368;51.728;5.248;2023-10-09T04:26:11;18.30;;;10.50;;
78891;SDS011;68368;51.728;5.248;2023-10-09T04:28:16;18.80;;;10.20;;
78891;SDS011;68368;51.728;5.248;2023-10-09T04:30:21;18.60;;;11.00;;
78891;SDS011;68368;51.728;5.248;2023-10-09T04:32:25;17.90;;;10.90;;
78891;SDS011;68368;51.728;5.248;2023-10-09T04:34:30;20.90;;;12.00;;
78891;SDS011;68368;51.728;5.248;2023-10-09T04:36:35;19.40;;;12.10;;
78891;SDS011;68368;51.728;5.248;2023-10-09T04:38:39;18.10;;;11.50;;
78891;SDS011;68368;51.728;5.248;2023-10-09T04:40:44;18.30;;;11.60;;
78891;SDS011;68368;51.728;5.248;2023-10-09T04:42:49;18.90;;;12.10;;
78891;SDS011;68368;51.728;5.248;2023-10-09T04:44:53;18.70;;;11.80;;
78891;SDS011;68368;51.728;5.248;2023-10-09T04:46:58;21.40;;;11.10;;
78891;SDS011;68368;51.728;5.248;2023-10-09T04:49:03;20.10;;;11.80;;
78891;SDS011;68368;51.728;5.248;2023-10-09T04:51:09;20.80;;;12.20;;
78891;SDS011;68368;51.728;5.248;2023-10-09T04:53:17;18.40;;;11.90;;
78891;SDS011;68368;51.728;5.248;2023-10-09T04:55:21;22.70;;;12.30;;
78891;SDS011;68368;51.728;5.248;2023-10-09T04:57:26;20.70;;;11.50;;
78891;SDS011;68368;51.728;5.248;2023-10-09T04:59:31;19.90;;;11.70;;
78891;SDS011;68368;51.728;5.248;2023-10-09T05:01:36;22.50;;;12.00;;
78891;SDS011;68368;51.728;5.248;2023-10-09T05:03:42;19.70;;;11.60;;
78891;SDS011;68368;51.728;5.248;2023-10-09T05:05:47;19.00;;;10.80;;
78891;SDS011;68368;51.728;5.248;2023-10-09T05:07:51;21.20;;;12.10;;
78891;SDS011;68368;51.728;5.248;2023-10-09T05:09:56;19.40;;;11.80;;
78891;SDS011;68368;51.728;5.248;2023-10-09T05:12:01;20.00;;;12.00;;
78891;SDS011;68368;51.728;5.248;2023-10-09T05:14:06;16.40;;;10.90;;
78891;SDS011;68368;51.728;5.248;2023-10-09T05:16:12;18.90;;;11.90;;
78891;SDS011;68368;51.728;5.248;2023-10-09T05:18:18;18.80;;;11.20;;
78891;SDS011;68368;51.728;5.248;2023-10-09T05:20:22;21.20;;;10.60;;
78891;SDS011;68368;51.728;5.248;2023-10-09T05:22:27;20.90;;;12.10;;
78891;SDS011;68368;51.728;5.248;2023-10-09T05:24:32;19.40;;;11.30;;
78891;SDS011;68368;51.728;5.248;2023-10-09T05:26:37;18.80;;;11.20;;
78891;SDS011;68368;51.728;5.248;2023-10-09T05:28:43;20.90;;;12.40;;
78891;SDS011;68368;51.728;5.248;2023-10-09T05:30:48;20.40;;;11.70;;
78891;SDS011;68368;51.728;5.248;2023-10-09T05:32:56;21.30;;;11.30;;
78891;SDS011;68368;51.728;5.248;2023-10-09T05:35:01;18.90;;;10.90;;
78891;SDS011;68368;51.728;5.248;2023-10-09T05:37:07;19.20;;;10.80;;
78891;SDS011;68368;51.728;5.248;2023-10-09T05:39:11;18.30;;;11.80;;
78891;SDS011;68368;51.728;5.248;2023-10-09T05:41:16;19.00;;;11.40;;
78891;SDS011;68368;51.728;5.248;2023-10-09T05:43:21;18.90;;;11.60;;
78891;SDS011;68368;51.728;5.248;2023-10-09T05:45:26;21.30;;;12.90;;
78891;SDS011;68368;51.728;5.248;2023-10-09T05:47:31;21.50;;;12.50;;
78891;SDS011;68368;51.728;5.248;2023-10-09T05:49:36;18.00;;;11.90;;
78891;SDS011;68368;51.728;5.248;2023-10-09T05:51:41;20.00;;;12.50;;
78891;SDS011;68368;51.728;5.248;2023-10-09T05:53:46;16.80;;;10.20;;
78891;SDS011;68368;51.728;5.248;2023-10-09T05:55:50;23.00;;;12.60;;
78891;SDS011;68368;51.728;5.248;2023-10-09T05:57:55;18.90;;;11.20;;
78891;SDS011;68368;51.728;5.248;2023-10-09T06:00:01;17.60;;;11.10;;
78891;SDS011;68368;51.728;5.248;2023-10-09T06:02:06;19.70;;;11.10;;
78891;SDS011;68368;51.728;5.248;2023-10-09T06:04:11;19.90;;;10.90;;
78891;SDS011;68368;51.728;5.248;2023-10-09T06:06:16;21.30;;;12.00;;
78891;SDS011;68368;51.728;5.248;2023-10-09T06:08:21;23.30;;;11.60;;
78891;SDS011;68368;51.728;5.248;2023-10-09T06:10:27;20.30;;;12.00;;
78891;SDS011;68368;51.728;5.248;2023-10-09T06:12:31;18.50;;;11.40;;
78891;SDS011;68368;51.728;5.248;2023-10-09T06:14:36;20.00;;;11.30;;
78891;SDS011;68368;51.728;5.248;2023-10-09T06:16:42;17.00;;;10.70;;
78891;SDS011;68368;51.728;5.248;2023-10-09T06:18:47;20.80;;;10.50;;
78891;SDS011;68368;51.728;5.248;2023-10-09T06:20:52;21.20;;;12.20;;
78891;SDS011;68368;51.728;5.248;2023-10-09T06:22:57;17.30;;;11.10;;
78891;SDS011;68368;51.728;5.248;2023-10-09T06:25:02;19.10;;;11.90;;
78891;SDS011;68368;51.728;5.248;2023-10-09T06:27:07;19.70;;;11.90;;
78891;SDS011;68368;51.728;5.248;2023-10-09T06:29:13;17.70;;;10.80;;
78891;SDS011;68368;51.728;5.248;2023-10-09T06:31:17;21.20;;;11.70;;
78891;SDS011;68368;51.728;5.248;2023-10-09T06:33:22;20.60;;;10.70;;
78891;SDS011;68368;51.728;5.248;2023-10-09T06:35:27;20.50;;;10.50;;
78891;SDS011;68368;51.728;5.248;2023-10-09T06:37:33;21.50;;;11.30;;
78891;SDS011;68368;51.728;5.248;2023-10-09T06:39:38;19.00;;;10.90;;
78891;SDS011;68368;51.728;5.248;2023-10-09T06:41:42;18.60;;;11.10;;
78891;SDS011;68368;51.728;5.248;2023-10-09T06:43:47;20.10;;;11.50;;
78891;SDS011;68368;51.728;5.248;2023-10-09T06:45:52;16.50;;;10.90;;
78891;SDS011;68368;51.728;5.248;2023-10-09T06:47:58;22.20;;;11.50;;
78891;SDS011;68368;51.728;5.248;2023-10-09T06:50:03;17.60;;;10.60;;
78891;SDS011;68368;51.728;5.248;2023-10-09T06:52:09;16.70;;;10.80;;
78891;SDS011;68368;51.728;5.248;2023-10-09T06:54:14;21.10;;;10.60;;
78891;SDS011;68368;51.728;5.248;2023-10-09T06:56:19;19.80;;;11.20;;
78891;SDS011;68368;51.728;5.248;2023-10-09T06:58:24;19.40;;;11.10;;
78891;SDS011;68368;51.728;5.248;2023-10-09T07:00:29;18.20;;;11.10;;
78891;SDS011;68368;51.728;5.248;2023-10-09T07:02:40;20.60;;;11.00;;
78891;SDS011;68368;51.728;5.248;2023-10-09T07:04:46;21.90;;;12.40;;
78891;SDS011;68368;51.728;5.248;2023-10-09T07:06:50;18.00;;;9.80;;
78891;SDS011;68368;51.728;5.248;2023-10-09T07:08:56;17.90;;;10.40;;
78891;SDS011;68368;51.728;5.248;2023-10-09T07:11:01;18.00;;;11.30;;
78891;SDS011;68368;51.728;5.248;2023-10-09T07:13:06;20.10;;;11.00;;
78891;SDS011;68368;51.728;5.248;2023-10-09T07:15:11;22.20;;;11.60;;
78891;SDS011;68368;51.728;5.248;2023-10-09T07:17:16;19.00;;;11.40;;
78891;SDS011;68368;51.728;5.248;2023-10-09T07:19:21;20.50;;;11.30;;
78891;SDS011;68368;51.728;5.248;2023-10-09T07:21:26;21.40;;;11.30;;
78891;SDS011;68368;51.728;5.248;2023-10-09T07:23:31;21.20;;;10.60;;
78891;SDS011;68368;51.728;5.248;2023-10-09T07:25:36;19.10;;;10.30;;
78891;SDS011;68368;51.728;5.248;2023-10-09T07:27:41;22.30;;;11.00;;
78891;SDS011;68368;51.728;5.248;2023-10-09T07:29:45;19.40;;;11.40;;
78891;SDS011;68368;51.728;5.248;2023-10-09T07:31:51;23.60;;;12.20;;
78891;SDS011;68368;51.728;5.248;2023-10-09T07:33:56;18.70;;;11.10;;
78891;SDS011;68368;51.728;5.248;2023-10-09T07:36:02;23.30;;;11.90;;
78891;SDS011;68368;51.728;5.248;2023-10-09T07:38:07;20.00;;;10.80;;
78891;SDS011;68368;51.728;5.248;2023-10-09T07:40:12;19.10;;;10.70;;
78891;SDS011;68368;51.728;5.248;2023-10-09T07:42:17;21.00;;;10.70;;
78891;SDS011;68368;51.728;5.248;2023-10-09T07:44:25;21.10;;;12.50;;
78891;SDS011;68368;51.728;5.248;2023-10-09T07:46:29;20.50;;;11.10;;
78891;SDS011;68368;51.728;5.248;2023-10-09T07:48:35;21.10;;;11.40;;
78891;SDS011;68368;51.728;5.248;2023-10-09T07:50:39;23.00;;;12.30;;
78891;SDS011;68368;51.728;5.248;2023-10-09T07:52:45;20.40;;;10.40;;
78891;SDS011;68368;51.728;5.248;2023-10-09T07:54:50;19.90;;;11.30;;
78891;SDS011;68368;51.728;5.248;2023-10-09T07:56:55;17.10;;;11.10;;
78891;SDS011;68368;51.728;5.248;2023-10-09T07:59:01;19.90;;;10.90;;
78891;SDS011;68368;51.728;5.248;2023-10-09T08:01:05;18.00;;;11.20;;
78891;SDS011;68368;51.728;5.248;2023-10-09T08:03:10;20.70;;;11.70;;
78891;SDS011;68368;51.728;5.248;2023-10-09T08:05:15;20.80;;;11.40;;
78891;SDS011;68368;51.728;5.248;2023-10-09T08:07:20;18.90;;;10.80;;
78891;SDS011;68368;51.728;5.248;2023-10-09T08:09:24;20.10;;;9.50;;
78891;SDS011;68368;51.728;5.248;2023-10-09T08:11:30;18.00;;;10.20;;
78891;SDS011;68368;51.728;5.248;2023-10-09T08:13:35;23.50;;;11.00;;
78891;SDS011;68368;51.728;5.248;2023-10-09T08:15:39;18.60;;;11.20;;
78891;SDS011;68368;51.728;5.248;2023-10-09T08:17:45;24.10;;;12.70;;
78891;SDS011;68368;51.728;5.248;2023-10-09T08:19:51;18.90;;;10.60;;
78891;SDS011;68368;51.728;5.248;2023-10-09T08:21:56;19.10;;;10.40;;
78891;SDS011;68368;51.728;5.248;2023-10-09T08:24:00;18.70;;;10.40;;
78891;SDS011;68368;51.728;5.248;2023-10-09T08:26:05;21.90;;;12.10;;
78891;SDS011;68368;51.728;5.248;2023-10-09T08:28:12;18.70;;;11.00;;
78891;SDS011;68368;51.728;5.248;2023-10-09T08:30:16;20.20;;;10.90;;
78891;SDS011;68368;51.728;5.248;2023-10-09T08:32:21;19.60;;;10.60;;
78891;SDS011;68368;51.728;5.248;2023-10-09T08:34:26;18.20;;;10.00;;
78891;SDS011;68368;51.728;5.248;2023-10-09T08:36:31;17.30;;;9.70;;
78891;SDS011;68368;51.728;5.248;2023-10-09T08:38:35;17.40;;;10.90;;
78891;SDS011;68368;51.728;5.248;2023-10-09T08:40:41;17.10;;;9.60;;
78891;SDS011;68368;51.728;5.248;2023-10-09T08:42:46;19.70;;;10.10;;
78891;SDS011;68368;51.728;5.248;2023-10-09T08:44:56;16.00;;;10.70;;
78891;SDS011;68368;51.728;5.248;2023-10-09T08:47:01;17.40;;;10.30;;
78891;SDS011;68368;51.728;5.248;2023-10-09T08:49:07;16.20;;;10.20;;
78891;SDS011;68368;51.728;5.248;2023-10-09T08:51:12;17.70;;;10.70;;
78891;SDS011;68368;51.728;5.248;2023-10-09T08:55:22;16.90;;;9.40;;
78891;SDS011;68368;51.728;5.248;2023-10-09T08:57:27;19.10;;;10.60;;
78891;SDS011;68368;51.728;5.248;2023-10-09T08:59:32;20.90;;;10.50;;
78891;SDS011;68368;51.728;5.248;2023-10-09T09:01:43;17.00;;;10.40;;
78891;SDS011;68368;51.728;5.248;2023-10-09T09:03:49;18.40;;;10.30;;
78891;SDS011;68368;51.728;5.248;2023-10-09T09:08:04;18.70;;;11.40;;
78891;SDS011;68368;51.728;5.248;2023-10-09T09:10:29;17.50;;;11.10;;
78891;SDS011;68368;51.728;5.248;2023-10-09T09:12:34;17.10;;;10.10;;
78891;SDS011;68368;51.728;5.248;2023-10-09T09:14:42;16.80;;;10.50;;
78891;SDS011;68368;51.728;5.248;2023-10-09T09:16:47;14.90;;;10.90;;
78891;SDS011;68368;51.728;5.248;2023-10-09T09:18:54;17.10;;;10.30;;
78891;SDS011;68368;51.728;5.248;2023-10-09T09:21:00;18.50;;;10.00;;
78891;SDS011;68368;51.728;5.248;2023-10-09T09:23:19;18.00;;;10.40;;
78891;SDS011;68368;51.728;5.248;2023-10-09T09:25:24;17.70;;;11.20;;
78891;SDS011;68368;51.728;5.248;2023-10-09T09:27:48;18.60;;;10.60;;
78891;SDS011;68368;51.728;5.248;2023-10-09T09:29:53;15.70;;;9.80;;
78891;SDS011;68368;51.728;5.248;2023-10-09T09:31:58;16.40;;;10.30;;
78891;SDS011;68368;51.728;5.248;2023-10-09T09:34:03;16.80;;;10.30;;
78891;SDS011;68368;51.728;5.248;2023-10-09T09:36:09;15.70;;;9.50;;
78891;SDS011;68368;51.728;5.248;2023-10-09T09:38:14;16.60;;;10.00;;
78891;SDS011;68368;51.728;5.248;2023-10-09T09:40:19;17.40;;;10.40;;
78891;SDS011;68368;51.728;5.248;2023-10-09T09:42:24;15.10;;;9.60;;
78891;SDS011;68368;51.728;5.248;2023-10-09T09:44:30;21.30;;;10.60;;
78891;SDS011;68368;51.728;5.248;2023-10-09T09:46:41;17.60;;;9.90;;
78891;SDS011;68368;51.728;5.248;2023-10-09T09:48:46;16.80;;;10.50;;
78891;SDS011;68368;51.728;5.248;2023-10-09T09:50:53;20.40;;;11.60;;
78891;SDS011;68368;51.728;5.248;2023-10-09T09:52:58;17.70;;;10.00;;
78891;SDS011;68368;51.728;5.248;2023-10-09T09:55:06;16.60;;;10.20;;
78891;SDS011;68368;51.728;5.248;2023-10-09T09:57:13;17.60;;;10.30;;
78891;SDS011;68368;51.728;5.248;2023-10-09T09:59:20;17.20;;;9.70;;
78891;SDS011;68368;51.728;5.248;2023-10-09T10:01:48;19.90;;;9.90;;
78891;SDS011;68368;51.728;5.248;2023-10-09T10:03:58;17.70;;;9.90;;
78891;SDS011;68368;51.728;5.248;2023-10-09T10:06:08;16.70;;;9.40;;
78891;SDS011;68368;51.728;5.248;2023-10-09T10:08:17;16.80;;;9.20;;
78891;SDS011;68368;51.728;5.248;2023-10-09T10:10:38;12.70;;;7.40;;
78891;SDS011;68368;51.728;5.248;2023-10-09T10:12:53;15.10;;;9.00;;
78891;SDS011;68368;51.728;5.248;2023-10-09T10:14:59;17.70;;;9.40;;
78891;SDS011;68368;51.728;5.248;2023-10-09T10:17:05;15.90;;;8.80;;
78891;SDS011;68368;51.728;5.248;2023-10-09T10:19:10;17.50;;;8.70;;
78891;SDS011;68368;51.728;5.248;2023-10-09T10:21:16;13.20;;;8.10;;
78891;SDS011;68368;51.728;5.248;2023-10-09T10:23:20;18.80;;;9.30;;
78891;SDS011;68368;51.728;5.248;2023-10-09T10:25:35;18.10;;;9.10;;
78891;SDS011;68368;51.728;5.248;2023-10-09T10:27:39;14.10;;;8.90;;
78891;SDS011;68368;51.728;5.248;2023-10-09T10:29:44;13.70;;;7.80;;
78891;SDS011;68368;51.728;5.248;2023-10-09T10:31:57;16.30;;;8.90;;
78891;SDS011;68368;51.728;5.248;2023-10-09T10:34:08;13.80;;;8.60;;
78891;SDS011;68368;51.728;5.248;2023-10-09T10:36:13;12.00;;;8.10;;
78891;SDS011;68368;51.728;5.248;2023-10-09T10:38:32;17.10;;;8.50;;
78891;SDS011;68368;51.728;5.248;2023-10-09T10:40:37;14.10;;;8.00;;
78891;SDS011;68368;51.728;5.248;2023-10-09T10:42:49;12.40;;;7.50;;
78891;SDS011;68368;51.728;5.248;2023-10-09T10:46:57;14.90;;;7.60;;
78891;SDS011;68368;51.728;5.248;2023-10-09T10:49:03;16.10;;;8.30;;
78891;SDS011;68368;51.728;5.248;2023-10-09T10:51:09;13.10;;;8.10;;
78891;SDS011;68368;51.728;5.248;2023-10-09T10:53:15;15.00;;;8.20;;
78891;SDS011;68368;51.728;5.248;2023-10-09T10:55:19;18.60;;;7.40;;
78891;SDS011;68368;51.728;5.248;2023-10-09T10:57:24;14.30;;;7.70;;
78891;SDS011;68368;51.728;5.248;2023-10-09T10:59:32;14.00;;;7.60;;
78891;SDS011;68368;51.728;5.248;2023-10-09T11:01:43;16.40;;;7.50;;
78891;SDS011;68368;51.728;5.248;2023-10-09T11:03:48;11.90;;;7.80;;
78891;SDS011;68368;51.728;5.248;2023-10-09T11:05:53;10.60;;;6.80;;
78891;SDS011;68368;51.728;5.248;2023-10-09T11:07:59;11.80;;;7.80;;
78891;SDS011;68368;51.728;5.248;2023-10-09T11:10:11;11.30;;;6.40;;
78891;SDS011;68368;51.728;5.248;2023-10-09T11:12:16;11.90;;;6.70;;
78891;SDS011;68368;51.728;5.248;2023-10-09T11:14:21;12.20;;;6.30;;
78891;SDS011;68368;51.728;5.248;2023-10-09T11:16:26;12.90;;;6.80;;
78891;SDS011;68368;51.728;5.248;2023-10-09T11:18:32;10.70;;;6.90;;
78891;SDS011;68368;51.728;5.248;2023-10-09T11:20:44;10.20;;;6.30;;
78891;SDS011;68368;51.728;5.248;2023-10-09T11:22:52;15.70;;;6.80;;
78891;SDS011;68368;51.728;5.248;2023-10-09T11:24:57;11.60;;;6.70;;
78891;SDS011;68368;51.728;5.248;2023-10-09T11:27:02;13.50;;;7.00;;
78891;SDS011;68368;51.728;5.248;2023-10-09T11:29:12;12.10;;;6.60;;
78891;SDS011;68368;51.728;5.248;2023-10-09T11:31:17;12.10;;;6.90;;
78891;SDS011;68368;51.728;5.248;2023-10-09T11:33:21;12.00;;;7.00;;
78891;SDS011;68368;51.728;5.248;2023-10-09T11:35:26;12.60;;;6.70;;
78891;SDS011;68368;51.728;5.248;2023-10-09T11:37:31;12.90;;;7.50;;
78891;SDS011;68368;51.728;5.248;2023-10-09T11:39:36;12.10;;;6.70;;
78891;SDS011;68368;51.728;5.248;2023-10-09T11:41:42;13.80;;;6.80;;
78891;SDS011;68368;51.728;5.248;2023-10-09T11:43:51;11.70;;;6.90;;
78891;SDS011;68368;51.728;5.248;2023-10-09T11:46:08;12.90;;;6.80;;
78891;SDS011;68368;51.728;5.248;2023-10-09T11:48:20;12.60;;;6.40;;
78891;SDS011;68368;51.728;5.248;2023-10-09T11:50:41;10.50;;;6.00;;
78891;SDS011;68368;51.728;5.248;2023-10-09T11:53:00;10.70;;;5.90;;
78891;SDS011;68368;51.728;5.248;2023-10-09T11:55:06;11.50;;;6.40;;
78891;SDS011;68368;51.728;5.248;2023-10-09T11:57:11;11.70;;;6.90;;
78891;SDS011;68368;51.728;5.248;2023-10-09T11:59:17;12.10;;;7.10;;
78891;SDS011;68368;51.728;5.248;2023-10-09T12:01:21;10.90;;;5.90;;
78891;SDS011;68368;51.728;5.248;2023-10-09T12:03:27;13.40;;;6.00;;
78891;SDS011;68368;51.728;5.248;2023-10-09T12:05:36;10.50;;;6.40;;
78891;SDS011;68368;51.728;5.248;2023-10-09T12:07:41;11.20;;;5.90;;
78891;SDS011;68368;51.728;5.248;2023-10-09T12:09:45;12.70;;;6.70;;
78891;SDS011;68368;51.728;5.248;2023-10-09T12:11:50;11.10;;;5.70;;
78891;SDS011;68368;51.728;5.248;2023-10-09T12:13:55;10.20;;;5.60;;
78891;SDS011;68368;51.728;5.248;2023-10-09T12:16:00;8.00;;;5.00;;
78891;SDS011;68368;51.728;5.248;2023-10-09T12:18:08;11.20;;;5.80;;
78891;SDS011;68368;51.728;5.248;2023-10-09T12:20:13;11.80;;;6.00;;
78891;SDS011;68368;51.728;5.248;2023-10-09T12:22:18;10.10;;;5.90;;
78891;SDS011;68368;51.728;5.248;2023-10-09T12:24:23;10.00;;;5.40;;
78891;SDS011;68368;51.728;5.248;2023-10-09T12:26:28;9.40;;;5.50;;